SBI466 EICK-EGSS
Flight info
| Callsign | SBI466 |
|---|---|
| Flight time | 1h 7m |
| Altitude | 33000 |
| Route | VAPAL1S VAPAL DCT BANBA DCT DIQSE DCT ICOSA DCT RUHUN DCT YORQI DCT CAWZE/N0412F230 P2 SIRIC |
| Aircraft | A320/M-SDE3FGHIRWY/LB1 |
Departure
| Time | 2026-04-30 20:39 |
|---|---|
| Airport | Cork International Airport (EICK) |
Arrival
| Time | 2026-04-30 21:46 |
|---|---|
| Airport | London Stansted Airport (EGSS) |
| Time | Latitude | Longitude | Altitude | Speed | Heading |
|---|---|---|---|---|---|
| 2026-04-30 20:24 | 51.84809 | -8.49216 | 504 ft | 0 kts | 70° |
| 2026-04-30 20:33 | 51.84823 | -8.49203 | 504 ft | 3 kts | 342° |
| 2026-04-30 20:33 | 51.84883 | -8.49250 | 504 ft | 21 kts | 338° |
| 2026-04-30 20:34 | 51.85138 | -8.49409 | 504 ft | 12 kts | 300° |
| 2026-04-30 20:34 | 51.85116 | -8.49498 | 504 ft | 0 kts | 210° |
| 2026-04-30 20:36 | 51.85092 | -8.49521 | 504 ft | 8 kts | 210° |
| 2026-04-30 20:36 | 51.84962 | -8.49605 | 504 ft | 2 kts | 146° |
| 2026-04-30 20:37 | 51.84955 | -8.49602 | 504 ft | 0 kts | 158° |
| 2026-04-30 20:38 | 51.84916 | -8.49578 | 505 ft | 30 kts | 160° |
| 2026-04-30 20:38 | 51.84405 | -8.49274 | 505 ft | 123 kts | 160° |
| 2026-04-30 20:39 | 51.82406 | -8.48144 | 1908 ft | 151 kts | 161° |
| 2026-04-30 20:39 | 51.81323 | -8.47590 | 2249 ft | 176 kts | 161° |
| 2026-04-30 20:39 | 51.80079 | -8.46948 | 2554 ft | 200 kts | 161° |
| 2026-04-30 20:40 | 51.78321 | -8.43272 | 3464 ft | 250 kts | 92° |
| 2026-04-30 20:40 | 51.78600 | -8.40436 | 4354 ft | 261 kts | 77° |
| 2026-04-30 20:40 | 51.79155 | -8.37623 | 5365 ft | 266 kts | 75° |
| 2026-04-30 20:41 | 51.80355 | -8.31895 | 7297 ft | 272 kts | 77° |
| 2026-04-30 20:41 | 51.80904 | -8.28935 | 8201 ft | 277 kts | 79° |
| 2026-04-30 20:41 | 51.81414 | -8.25921 | 9081 ft | 281 kts | 81° |
| 2026-04-30 20:41 | 51.81901 | -8.22839 | 9992 ft | 285 kts | 82° |
| 2026-04-30 20:42 | 51.82380 | -8.19646 | 10525 ft | 302 kts | 83° |
| 2026-04-30 20:42 | 51.82878 | -8.16219 | 10840 ft | 326 kts | 83° |
| 2026-04-30 20:42 | 51.83973 | -8.08710 | 11881 ft | 353 kts | 82° |
| 2026-04-30 20:43 | 51.84550 | -8.04819 | 12641 ft | 358 kts | 82° |
| 2026-04-30 20:43 | 51.85132 | -8.00884 | 13421 ft | 362 kts | 83° |
| 2026-04-30 20:43 | 51.85718 | -7.96893 | 14152 ft | 366 kts | 83° |
| 2026-04-30 20:44 | 51.86902 | -7.88785 | 15530 ft | 373 kts | 83° |
| 2026-04-30 20:44 | 51.87500 | -7.84678 | 16222 ft | 376 kts | 83° |
| 2026-04-30 20:44 | 51.88186 | -7.76359 | 17532 ft | 377 kts | 91° |
| 2026-04-30 20:45 | 51.88630 | -7.67838 | 18834 ft | 383 kts | 92° |
| 2026-04-30 20:45 | 51.88852 | -7.63513 | 19420 ft | 386 kts | 92° |
| 2026-04-30 20:45 | 51.89075 | -7.59160 | 20004 ft | 390 kts | 92° |
| 2026-04-30 20:46 | 51.89751 | -7.45849 | 21684 ft | 400 kts | 92° |
| 2026-04-30 20:46 | 51.89977 | -7.41347 | 22219 ft | 404 kts | 92° |
| 2026-04-30 20:47 | 51.90437 | -7.32211 | 23196 ft | 411 kts | 91° |
| 2026-04-30 20:47 | 51.90668 | -7.27578 | 23674 ft | 414 kts | 91° |
| 2026-04-30 20:48 | 51.91122 | -7.18224 | 24470 ft | 420 kts | 92° |
| 2026-04-30 20:48 | 51.91346 | -7.13495 | 24869 ft | 422 kts | 92° |
| 2026-04-30 20:48 | 51.91569 | -7.08731 | 25040 ft | 424 kts | 92° |
| 2026-04-30 20:48 | 51.91791 | -7.03976 | 25081 ft | 424 kts | 92° |
| 2026-04-30 20:49 | 51.92009 | -6.99288 | 25085 ft | 423 kts | 92° |
| 2026-04-30 20:49 | 51.92230 | -6.94529 | 25084 ft | 423 kts | 92° |
| 2026-04-30 20:49 | 51.92450 | -6.89772 | 25084 ft | 423 kts | 92° |
| 2026-04-30 20:50 | 51.92886 | -6.80272 | 25082 ft | 423 kts | 91° |
| 2026-04-30 20:50 | 51.93103 | -6.75502 | 25090 ft | 424 kts | 91° |
| 2026-04-30 20:50 | 51.93317 | -6.70744 | 25090 ft | 424 kts | 91° |
| 2026-04-30 20:50 | 51.93529 | -6.65956 | 25339 ft | 427 kts | 91° |
| 2026-04-30 20:51 | 51.93737 | -6.61159 | 25754 ft | 429 kts | 92° |
| 2026-04-30 20:51 | 51.94075 | -6.53105 | 26381 ft | 433 kts | 92° |
| 2026-04-30 20:51 | 51.94280 | -6.48158 | 26749 ft | 435 kts | 91° |
| 2026-04-30 20:52 | 51.94481 | -6.43325 | 27101 ft | 438 kts | 91° |
| 2026-04-30 20:52 | 51.94683 | -6.38383 | 27438 ft | 440 kts | 92° |
| 2026-04-30 20:52 | 51.95082 | -6.28428 | 28059 ft | 444 kts | 92° |
| 2026-04-30 20:53 | 51.95007 | -6.23441 | 28376 ft | 441 kts | 101° |
| 2026-04-30 20:53 | 51.94479 | -6.18571 | 28670 ft | 438 kts | 108° |
| 2026-04-30 20:53 | 51.93740 | -6.13764 | 28962 ft | 440 kts | 108° |
| 2026-04-30 20:54 | 51.92247 | -6.04105 | 29518 ft | 444 kts | 108° |
| 2026-04-30 20:54 | 51.91494 | -5.99232 | 29770 ft | 446 kts | 108° |
| 2026-04-30 20:54 | 51.90740 | -5.94345 | 30029 ft | 447 kts | 108° |
| 2026-04-30 20:55 | 51.89226 | -5.84593 | 30589 ft | 447 kts | 108° |
| 2026-04-30 20:55 | 51.88467 | -5.79733 | 30879 ft | 445 kts | 108° |
| 2026-04-30 20:55 | 51.87708 | -5.74878 | 31184 ft | 445 kts | 108° |
| 2026-04-30 20:56 | 51.86188 | -5.65167 | 31744 ft | 445 kts | 108° |
| 2026-04-30 20:56 | 51.85424 | -5.60301 | 32026 ft | 445 kts | 108° |
| 2026-04-30 20:56 | 51.83891 | -5.50622 | 32585 ft | 445 kts | 108° |
| 2026-04-30 20:57 | 51.83116 | -5.45771 | 32864 ft | 445 kts | 108° |
| 2026-04-30 20:57 | 51.82342 | -5.40943 | 33075 ft | 446 kts | 108° |
| 2026-04-30 20:57 | 51.81563 | -5.36095 | 33120 ft | 444 kts | 108° |
| 2026-04-30 20:58 | 51.79308 | -5.21598 | 33117 ft | 444 kts | 106° |
| 2026-04-30 20:58 | 51.78374 | -5.13681 | 33120 ft | 445 kts | 104° |
| 2026-04-30 20:59 | 51.78064 | -5.10744 | 33121 ft | 445 kts | 103° |
| 2026-04-30 21:00 | 51.77618 | -5.06451 | 33121 ft | 445 kts | 103° |
| 2026-04-30 21:01 | 51.75976 | -4.91692 | 33117 ft | 444 kts | 105° |
| 2026-04-30 21:02 | 51.74197 | -4.77010 | 33095 ft | 445 kts | 104° |
| 2026-04-30 21:02 | 51.73010 | -4.67224 | 33097 ft | 445 kts | 104° |
| 2026-04-30 21:03 | 51.71818 | -4.57396 | 33092 ft | 446 kts | 104° |
| 2026-04-30 21:03 | 51.70618 | -4.47587 | 32783 ft | 447 kts | 104° |
| 2026-04-30 21:03 | 51.70016 | -4.42691 | 33166 ft | 448 kts | 104° |
| 2026-04-30 21:04 | 51.69407 | -4.37769 | 33110 ft | 447 kts | 105° |
| 2026-04-30 21:04 | 51.67584 | -4.23096 | 33122 ft | 445 kts | 104° |
| 2026-04-30 21:05 | 51.66353 | -4.13312 | 33122 ft | 444 kts | 105° |
| 2026-04-30 21:05 | 51.65122 | -4.03592 | 33127 ft | 444 kts | 105° |
| 2026-04-30 21:06 | 51.63883 | -3.93833 | 33125 ft | 444 kts | 105° |
| 2026-04-30 21:06 | 51.62640 | -3.84084 | 33103 ft | 444 kts | 104° |
| 2026-04-30 21:07 | 51.61388 | -3.74357 | 33111 ft | 444 kts | 104° |
| 2026-04-30 21:07 | 51.60119 | -3.64634 | 33120 ft | 444 kts | 105° |
| 2026-04-30 21:08 | 51.59179 | -3.54853 | 33122 ft | 447 kts | 98° |
| 2026-04-30 21:08 | 51.58604 | -3.44845 | 33127 ft | 447 kts | 98° |
| 2026-04-30 21:09 | 51.58013 | -3.34880 | 33108 ft | 447 kts | 98° |
| 2026-04-30 21:09 | 51.57420 | -3.25003 | 33124 ft | 447 kts | 98° |
| 2026-04-30 21:10 | 51.56825 | -3.15064 | 33128 ft | 447 kts | 98° |
| 2026-04-30 21:10 | 51.56219 | -3.05134 | 33223 ft | 447 kts | 98° |
| 2026-04-30 21:11 | 51.55599 | -2.95196 | 33225 ft | 446 kts | 98° |
| 2026-04-30 21:11 | 51.54969 | -2.85269 | 33211 ft | 446 kts | 98° |
| 2026-04-30 21:12 | 51.54332 | -2.75364 | 33123 ft | 446 kts | 98° |
| 2026-04-30 21:12 | 51.53697 | -2.65437 | 33132 ft | 446 kts | 98° |
| 2026-04-30 21:13 | 51.53050 | -2.55528 | 33136 ft | 446 kts | 99° |
| 2026-04-30 21:13 | 51.52285 | -2.45675 | 33140 ft | 443 kts | 105° |
| 2026-04-30 21:14 | 51.50124 | -2.36512 | 33124 ft | 438 kts | 120° |
| 2026-04-30 21:14 | 51.47219 | -2.27906 | 33129 ft | 439 kts | 120° |
| 2026-04-30 21:15 | 51.44315 | -2.19254 | 33136 ft | 441 kts | 120° |
| 2026-04-30 21:15 | 51.41404 | -2.10604 | 33141 ft | 441 kts | 120° |
| 2026-04-30 21:16 | 51.39948 | -2.06298 | 32702 ft | 438 kts | 120° |
| 2026-04-30 21:16 | 51.38540 | -2.01968 | 31752 ft | 440 kts | 116° |
| 2026-04-30 21:16 | 51.37510 | -1.97335 | 30801 ft | 444 kts | 106° |
| 2026-04-30 21:16 | 51.36964 | -1.92524 | 29791 ft | 449 kts | 98° |
| 2026-04-30 21:17 | 51.36616 | -1.87557 | 28676 ft | 449 kts | 99° |
| 2026-04-30 21:17 | 51.36265 | -1.82612 | 27642 ft | 447 kts | 99° |
| 2026-04-30 21:17 | 51.35912 | -1.77698 | 26872 ft | 440 kts | 100° |
| 2026-04-30 21:17 | 51.35560 | -1.72876 | 26118 ft | 434 kts | 100° |
| 2026-04-30 21:18 | 51.35207 | -1.68110 | 25399 ft | 428 kts | 100° |
| 2026-04-30 21:18 | 51.34854 | -1.63414 | 24697 ft | 423 kts | 101° |
| 2026-04-30 21:18 | 51.34505 | -1.58792 | 24008 ft | 418 kts | 101° |
| 2026-04-30 21:18 | 51.34157 | -1.54169 | 23268 ft | 413 kts | 101° |
| 2026-04-30 21:19 | 51.33815 | -1.49632 | 22526 ft | 409 kts | 101° |
| 2026-04-30 21:19 | 51.33475 | -1.45138 | 21813 ft | 405 kts | 101° |
| 2026-04-30 21:19 | 51.33135 | -1.40696 | 21132 ft | 401 kts | 101° |
| 2026-04-30 21:19 | 51.32796 | -1.36289 | 20452 ft | 398 kts | 100° |
| 2026-04-30 21:20 | 51.32459 | -1.31899 | 19823 ft | 395 kts | 100° |
| 2026-04-30 21:20 | 51.32123 | -1.27554 | 19219 ft | 391 kts | 100° |
| 2026-04-30 21:20 | 51.31788 | -1.23245 | 18636 ft | 389 kts | 100° |
| 2026-04-30 21:20 | 51.31516 | -1.18964 | 17999 ft | 388 kts | 94° |
| 2026-04-30 21:21 | 51.31704 | -1.14650 | 17402 ft | 389 kts | 83° |
| 2026-04-30 21:21 | 51.32301 | -1.10487 | 16779 ft | 387 kts | 80° |
| 2026-04-30 21:21 | 51.33562 | -1.02182 | 15591 ft | 382 kts | 80° |
| 2026-04-30 21:22 | 51.34181 | -0.98063 | 15002 ft | 379 kts | 80° |
| 2026-04-30 21:22 | 51.35994 | -0.85886 | 13197 ft | 371 kts | 80° |
| 2026-04-30 21:23 | 51.36588 | -0.81878 | 12571 ft | 368 kts | 80° |
| 2026-04-30 21:23 | 51.37035 | -0.78851 | 12094 ft | 365 kts | 80° |
| 2026-04-30 21:28 | 51.37756 | -0.74145 | 11394 ft | 362 kts | 79° |
| 2026-04-30 21:28 | 51.38345 | -0.70149 | 11192 ft | 362 kts | 79° |
| 2026-04-30 21:28 | 51.39478 | -0.62285 | 11192 ft | 363 kts | 80° |
| 2026-04-30 21:29 | 51.40049 | -0.58341 | 11199 ft | 363 kts | 80° |
| 2026-04-30 21:29 | 51.41752 | -0.46597 | 11214 ft | 363 kts | 79° |
| 2026-04-30 21:30 | 51.43233 | -0.38863 | 11220 ft | 367 kts | 65° |
| 2026-04-30 21:31 | 51.48937 | -0.30697 | 11229 ft | 379 kts | 27° |
| 2026-04-30 21:31 | 51.53709 | -0.27077 | 11214 ft | 379 kts | 27° |
| 2026-04-30 21:32 | 51.58471 | -0.23421 | 11216 ft | 379 kts | 28° |
| 2026-04-30 21:32 | 51.60830 | -0.21603 | 10892 ft | 372 kts | 28° |
| 2026-04-30 21:32 | 51.63102 | -0.19853 | 10772 ft | 354 kts | 28° |
| 2026-04-30 21:32 | 51.65268 | -0.18184 | 10646 ft | 339 kts | 28° |
| 2026-04-30 21:33 | 51.66694 | -0.17086 | 10568 ft | 330 kts | 28° |
| 2026-04-30 21:33 | 51.70625 | -0.14056 | 9881 ft | 301 kts | 28° |
| 2026-04-30 21:33 | 51.72495 | -0.12606 | 9287 ft | 294 kts | 28° |
| 2026-04-30 21:34 | 51.74308 | -0.11197 | 8688 ft | 288 kts | 28° |
| 2026-04-30 21:34 | 51.77143 | -0.07070 | 7288 ft | 273 kts | 72° |
| 2026-04-30 21:34 | 51.77395 | -0.04161 | 6618 ft | 263 kts | 100° |
| 2026-04-30 21:35 | 51.76802 | -0.01390 | 5902 ft | 257 kts | 120° |
| 2026-04-30 21:35 | 51.75955 | 0.01089 | 5177 ft | 254 kts | 122° |
| 2026-04-30 21:35 | 51.75090 | 0.03556 | 4461 ft | 252 kts | 122° |
| 2026-04-30 21:35 | 51.74087 | 0.05811 | 4073 ft | 233 kts | 142° |
| 2026-04-30 21:36 | 51.72734 | 0.06784 | 3995 ft | 208 kts | 173° |
| 2026-04-30 21:36 | 51.71377 | 0.06283 | 3996 ft | 203 kts | 209° |
| 2026-04-30 21:37 | 51.71015 | -0.00268 | 4026 ft | 233 kts | 299° |
| 2026-04-30 21:37 | 51.71946 | -0.02411 | 4021 ft | 235 kts | 314° |
| 2026-04-30 21:37 | 51.73341 | -0.03711 | 4023 ft | 234 kts | 350° |
| 2026-04-30 21:37 | 51.74938 | -0.03653 | 4027 ft | 229 kts | 19° |
| 2026-04-30 21:38 | 51.76279 | -0.02442 | 4015 ft | 217 kts | 54° |
| 2026-04-30 21:38 | 51.76905 | -0.00340 | 3769 ft | 204 kts | 83° |
| 2026-04-30 21:38 | 51.77298 | 0.01863 | 3515 ft | 204 kts | 79° |
| 2026-04-30 21:38 | 51.77715 | 0.04015 | 3307 ft | 194 kts | 80° |
| 2026-04-30 21:39 | 51.78104 | 0.05999 | 3065 ft | 177 kts | 80° |
| 2026-04-30 21:39 | 51.78545 | 0.07785 | 2868 ft | 168 kts | 69° |
| 2026-04-30 21:39 | 51.79194 | 0.09293 | 2778 ft | 152 kts | 63° |
| 2026-04-30 21:39 | 51.79832 | 0.10753 | 3100 ft | 177 kts | 70° |
| 2026-04-30 21:40 | 51.80060 | 0.12703 | 3585 ft | 169 kts | 104° |
| 2026-04-30 21:40 | 51.79559 | 0.14360 | 4002 ft | 167 kts | 138° |
| 2026-04-30 21:40 | 51.78522 | 0.15248 | 4189 ft | 175 kts | 162° |
| 2026-04-30 21:40 | 51.77363 | 0.15832 | 4017 ft | 173 kts | 162° |
| 2026-04-30 21:41 | 51.76208 | 0.16374 | 3857 ft | 172 kts | 162° |
| 2026-04-30 21:41 | 51.75031 | 0.16592 | 3685 ft | 174 kts | 182° |
| 2026-04-30 21:41 | 51.73892 | 0.15856 | 3516 ft | 183 kts | 209° |
| 2026-04-30 21:41 | 51.73051 | 0.14246 | 3313 ft | 195 kts | 236° |
| 2026-04-30 21:42 | 51.72725 | 0.12084 | 3207 ft | 205 kts | 263° |
| 2026-04-30 21:42 | 51.73031 | 0.09804 | 3105 ft | 216 kts | 297° |
| 2026-04-30 21:42 | 51.74070 | 0.08080 | 2986 ft | 216 kts | 333° |
| 2026-04-30 21:42 | 51.75504 | 0.07579 | 3032 ft | 210 kts | 11° |
| 2026-04-30 21:43 | 51.76827 | 0.08325 | 3038 ft | 200 kts | 36° |
| 2026-04-30 21:43 | 51.78088 | 0.09324 | 2960 ft | 206 kts | 31° |
| 2026-04-30 21:43 | 51.79457 | 0.10256 | 2897 ft | 213 kts | 27° |
| 2026-04-30 21:43 | 51.80710 | 0.11207 | 2737 ft | 187 kts | 44° |
| 2026-04-30 21:44 | 51.81573 | 0.12596 | 2302 ft | 168 kts | 59° |
| 2026-04-30 21:44 | 51.82300 | 0.14001 | 1949 ft | 155 kts | 58° |
| 2026-04-30 21:44 | 51.83024 | 0.15220 | 1654 ft | 149 kts | 55° |
| 2026-04-30 21:44 | 51.83768 | 0.16330 | 1376 ft | 142 kts | 50° |
| 2026-04-30 21:45 | 51.84485 | 0.17387 | 1118 ft | 137 kts | 51° |
| 2026-04-30 21:45 | 51.85152 | 0.18456 | 938 ft | 133 kts | 48° |
| 2026-04-30 21:45 | 51.85826 | 0.19474 | 821 ft | 133 kts | 47° |
| 2026-04-30 21:45 | 51.86506 | 0.20482 | 653 ft | 131 kts | 46° |
| 2026-04-30 21:46 | 51.87173 | 0.21475 | 480 ft | 130 kts | 49° |
| 2026-04-30 21:46 | 51.87832 | 0.22479 | 354 ft | 130 kts | 45° |
| 2026-04-30 21:46 | 51.88409 | 0.23362 | 336 ft | 85 kts | 41° |
| 2026-04-30 21:46 | 51.88618 | 0.23666 | 334 ft | 8 kts | 42° |
| 2026-04-30 21:47 | 51.88664 | 0.23736 | 334 ft | 11 kts | 43° |
| 2026-04-30 21:47 | 51.88725 | 0.23828 | 335 ft | 13 kts | 44° |
| 2026-04-30 21:47 | 51.88797 | 0.23944 | 335 ft | 19 kts | 46° |
| 2026-04-30 21:47 | 51.88897 | 0.24203 | 339 ft | 39 kts | 67° |